Time;durP1;ratioP1;P1;durP2;ratioP2;P2;SDS_P1;SDS_P2;PMS_P1;PMS_P2;Temp;Humidity;BMP_temperature;BMP_pressure;BME280_temperature;BME280_humidity;BME280_pressure;Samples;Min_cycle;Max_cycle;Signal;HPM_P1;HPM_P2
2022/09/15 00:00:43;;;;;;;2.10;0.60;;;;;;;13.35;71.44;99871.34;4979059;28;20030;-73
2022/09/15 00:03:08;;;;;;;3.70;1.48;;;;;;;13.37;71.75;99874.59;4995678;28;20369;-73
2022/09/15 00:05:34;;;;;;;2.78;1.00;;;;;;;13.42;71.37;99870.97;5012671;28;20601;-72
2022/09/15 00:08:00;;;;;;;1.58;1.00;;;;;;;13.45;71.86;99881.34;5009152;28;20085;-74
2022/09/15 00:10:27;;;;;;;1.10;0.80;;;;;;;13.46;71.67;99879.41;4994515;28;20038;-74
2022/09/15 00:12:54;;;;;;;4.80;1.10;;;;;;;13.43;71.92;99878.91;5000999;28;20093;-73
2022/09/15 00:15:21;;;;;;;1.17;0.90;;;;;;;13.41;71.80;99878.38;5000145;28;20596;-73
2022/09/15 00:17:51;;;;;;;2.78;1.13;;;;;;;13.40;72.00;99879.50;5005884;28;20045;-74
2022/09/15 00:20:19;;;;;;;1.58;1.05;;;;;;;13.37;72.50;99882.81;5001633;28;20029;-75
2022/09/15 00:22:46;;;;;;;1.70;1.02;;;;;;;13.35;71.99;99882.31;5004256;28;20104;-74
2022/09/15 00:25:11;;;;;;;0.82;0.80;;;;;;;13.31;72.24;99881.25;5002306;28;20526;-72
2022/09/15 00:27:37;;;;;;;2.63;1.00;;;;;;;13.29;72.63;99888.97;5001755;28;20120;-72
2022/09/15 00:30:04;;;;;;;2.58;0.90;;;;;;;13.25;72.66;99890.69;5012447;28;20037;-73
2022/09/15 00:32:29;;;;;;;4.60;1.45;;;;;;;13.22;73.00;99891.28;5008824;28;20046;-72
2022/09/15 00:34:55;;;;;;;1.83;0.88;;;;;;;13.19;72.88;99892.69;4997385;28;20787;-72
2022/09/15 00:37:20;;;;;;;2.50;1.10;;;;;;;13.17;72.65;99892.16;5013395;28;20033;-74
2022/09/15 00:39:46;;;;;;;1.50;0.98;;;;;;;13.17;72.90;99891.34;5010857;28;20049;-73
2022/09/15 00:42:17;;;;;;;2.17;1.02;;;;;;;13.16;72.78;99895.22;5014549;28;20034;-73
2022/09/15 00:44:46;;;;;;;1.73;0.82;;;;;;;13.14;72.81;99894.69;5000144;28;20137;-72
2022/09/15 00:47:12;;;;;;;1.75;1.00;;;;;;;13.12;72.84;99888.69;4996132;28;20041;-72
2022/09/15 00:49:39;;;;;;;1.50;1.00;;;;;;;13.13;72.74;99893.03;4996536;28;20154;-74
2022/09/15 00:52:41;;;;;;;2.10;1.02;;;;;;;13.15;73.22;99888.06;5014151;28;20119;-73
2022/09/15 00:55:28;;;;;;;1.42;0.98;;;;;;;13.18;72.44;99895.72;4985115;28;20054;-73
2022/09/15 00:58:00;;;;;;;2.65;0.98;;;;;;;13.19;72.45;99891.88;5006412;28;20049;-72
2022/09/15 01:00:27;;;;;;;4.43;0.88;;;;;;;13.19;73.07;99889.13;4999049;28;20673;-73
2022/09/15 01:02:54;;;;;;;0.98;0.90;;;;;;;13.24;72.67;99892.63;5011190;28;20049;-75
2022/09/15 01:05:25;;;;;;;1.15;0.77;;;;;;;13.26;72.72;99892.31;4999658;28;20631;-74
2022/09/15 01:08:06;;;;;;;1.83;0.82;;;;;;;13.32;72.20;99902.09;5002604;28;20028;-74
2022/09/15 01:10:36;;;;;;;2.22;0.90;;;;;;;13.33;72.37;99889.19;5002282;28;20033;-74
2022/09/15 01:13:06;;;;;;;0.68;0.68;;;;;;;13.36;72.44;99894.94;5008463;28;20459;-74
2022/09/15 01:15:34;;;;;;;2.53;1.13;;;;;;;13.46;72.37;99898.63;5011000;28;20029;-72
2022/09/15 01:18:24;;;;;;;3.10;0.90;;;;;;;13.51;71.78;99895.81;5010141;28;20100;-74
2022/09/15 01:21:13;;;;;;;3.30;0.90;;;;;;;13.53;71.50;99899.06;5003277;28;20117;-74
2022/09/15 01:24:15;;;;;;;0.88;0.65;;;;;;;13.55;71.61;99900.41;5013447;28;20038;-73
2022/09/15 01:27:04;;;;;;;1.77;0.90;;;;;;;13.64;70.96;99911.53;4985492;28;20053;-72
2022/09/15 01:29:54;;;;;;;1.13;0.93;;;;;;;13.69;70.82;99907.91;5005102;28;20037;-75
2022/09/15 01:35:32;;;;;;;0.70;0.70;;;;;;;13.72;70.67;99899.06;5010558;28;20109;-72
2022/09/15 01:38:05;;;;;;;1.95;0.82;;;;;;;13.73;70.18;99909.75;5011894;28;21735;-70
2022/09/15 01:41:05;;;;;;;1.42;0.93;;;;;;;13.70;70.92;99899.34;5008310;28;20042;-70
2022/09/15 01:43:34;;;;;;;4.03;1.00;;;;;;;13.69;70.47;99886.72;4961843;28;20053;-70
2022/09/15 01:46:01;;;;;;;1.48;0.98;;;;;;;13.69;71.01;99891.41;5016019;28;20088;-71
2022/09/15 01:48:30;;;;;;;1.13;0.85;;;;;;;13.66;70.71;99892.00;5000334;28;20052;-71
2022/09/15 01:51:01;;;;;;;1.83;0.98;;;;;;;13.66;70.67;99886.53;5019999;28;20045;-70
2022/09/15 01:53:27;;;;;;;2.50;0.88;;;;;;;13.60;70.65;99888.53;5013867;28;20129;-71
2022/09/15 01:55:56;;;;;;;1.65;0.88;;;;;;;13.55;71.12;99885.84;5007434;28;20112;-71
2022/09/15 01:58:22;;;;;;;1.65;1.20;;;;;;;13.49;70.98;99887.88;5014043;28;20118;-70
2022/09/15 02:00:55;;;;;;;0.70;0.70;;;;;;;13.43;71.76;99889.91;5007613;28;20440;-70
2022/09/15 02:03:32;;;;;;;3.10;0.80;;;;;;;13.39;71.30;99883.34;5015866;28;20128;-71
2022/09/15 02:06:06;;;;;;;2.10;0.90;;;;;;;13.39;71.92;99888.00;5013005;28;20025;-70
2022/09/15 02:08:46;;;;;;;3.22;1.33;;;;;;;13.36;72.10;99885.88;5005489;28;20033;-71
2022/09/15 02:11:26;;;;;;;2.10;1.00;;;;;;;13.34;71.81;99885.31;5017696;28;20018;-69
2022/09/15 02:14:02;;;;;;;2.85;1.00;;;;;;;13.35;71.64;99890.56;5004602;28;20022;-70
2022/09/15 02:16:32;;;;;;;3.85;0.95;;;;;;;13.30;71.75;99879.59;5000164;28;20037;-71
2022/09/15 02:18:58;;;;;;;1.50;0.90;;;;;;;13.29;71.78;99888.97;5010215;28;20034;-70
2022/09/15 02:21:39;;;;;;;3.13;1.02;;;;;;;13.23;72.07;99890.97;5007282;28;20029;-71
2022/09/15 02:24:11;;;;;;;1.15;0.77;;;;;;;13.23;72.16;99893.72;5015610;28;20423;-70
2022/09/15 02:26:39;;;;;;;1.35;0.70;;;;;;;13.23;72.38;99893.72;5003538;28;20060;-70
2022/09/15 02:29:07;;;;;;;1.67;1.00;;;;;;;13.25;72.37;99896.97;5009287;28;20117;-69
2022/09/15 02:31:38;;;;;;;3.38;0.85;;;;;;;13.23;72.46;99895.66;5017131;28;20029;-69
2022/09/15 02:34:23;;;;;;;3.53;0.93;;;;;;;13.21;72.93;99897.88;5011101;28;20407;-68
2022/09/15 02:36:52;;;;;;;1.38;0.90;;;;;;;13.20;72.63;99902.56;5007896;23;20066;-71
2022/09/15 02:39:22;;;;;;;1.13;0.80;;;;;;;13.14;72.88;99892.75;5117705;23;20054;-72
2022/09/15 02:41:47;;;;;;;1.20;0.70;;;;;;;13.13;72.79;99902.09;5003150;28;20110;-71
2022/09/15 02:44:13;;;;;;;1.00;0.90;;;;;;;13.11;73.27;99898.81;5000868;28;20038;-73
2022/09/15 02:46:40;;;;;;;1.35;0.77;;;;;;;13.06;73.16;99896.16;4996249;28;20042;-75
2022/09/15 02:49:05;;;;;;;2.58;0.80;;;;;;;13.00;73.33;99892.66;4964270;28;20030;-75
2022/09/15 02:51:31;;;;;;;1.63;1.00;;;;;;;13.04;73.51;99898.38;4982337;28;20077;-74
2022/09/15 02:53:56;;;;;;;1.55;1.15;;;;;;;13.00;73.45;99898.16;4991381;28;20045;-73
2022/09/15 02:56:22;;;;;;;1.98;0.93;;;;;;;13.03;73.13;99905.78;4997031;28;20027;-75
2022/09/15 02:58:48;;;;;;;1.50;0.77;;;;;;;13.07;73.88;99898.59;4956464;28;20034;-74
2022/09/15 03:01:14;;;;;;;2.22;0.85;;;;;;;13.06;73.23;99907.13;4995820;28;20357;-74
2022/09/15 03:03:41;;;;;;;1.65;0.90;;;;;;;13.04;73.25;99904.69;4978473;28;20093;-73
2022/09/15 03:06:16;;;;;;;5.82;1.17;;;;;;;13.01;73.98;99897.06;4975428;28;20391;-74
2022/09/15 03:08:50;;;;;;;3.92;1.17;;;;;;;13.01;73.47;99905.28;4976243;28;20042;-75
2022/09/15 03:11:18;;;;;;;1.33;0.70;;;;;;;12.99;73.79;99910.22;4999903;28;20097;-76
2022/09/15 03:13:44;;;;;;;2.47;0.75;;;;;;;12.98;73.82;99907.78;4995662;28;20054;-75
2022/09/15 03:16:11;;;;;;;3.08;0.90;;;;;;;12.94;74.42;99910.31;4996100;28;20037;-74
2022/09/15 03:18:37;;;;;;;2.50;0.90;;;;;;;12.90;74.17;99909.28;4981431;28;20030;-73
2022/09/15 03:21:05;;;;;;;2.67;1.10;;;;;;;12.86;74.98;99908.22;5000675;28;20460;-73
2022/09/15 03:23:31;;;;;;;3.40;0.95;;;;;;;12.83;74.37;99903.31;4973077;28;20030;-74
2022/09/15 03:26:00;;;;;;;0.82;0.70;;;;;;;12.84;74.65;99905.78;4988977;28;20026;-74
2022/09/15 03:28:26;;;;;;;1.15;0.90;;;;;;;12.87;74.49;99916.16;4978126;28;20124;-73
2022/09/15 03:30:53;;;;;;;1.50;0.98;;;;;;;12.89;74.66;99918.59;4997042;28;20524;-74
2022/09/15 03:33:19;;;;;;;2.38;1.05;;;;;;;12.88;74.92;99919.72;4997625;28;20209;-74
2022/09/15 03:35:49;;;;;;;1.50;0.63;;;;;;;12.85;74.84;99923.03;5006914;28;20052;-76
2022/09/15 03:38:15;;;;;;;3.15;1.65;;;;;;;12.88;74.88;99922.47;4996946;28;20045;-73
2022/09/15 03:40:42;;;;;;;1.70;0.90;;;;;;;12.96;74.85;99923.75;4995888;28;20069;-73
2022/09/15 03:43:11;;;;;;;2.22;0.75;;;;;;;13.01;74.68;99927.25;4992436;28;20424;-73
2022/09/15 03:45:37;;;;;;;1.42;0.60;;;;;;;13.05;74.19;99932.94;4974742;28;20038;-73
2022/09/15 03:48:04;;;;;;;1.25;0.70;;;;;;;13.09;73.95;99928.50;4995226;28;20026;-73
2022/09/15 03:50:31;;;;;;;1.60;0.70;;;;;;;13.07;73.81;99923.31;4976971;28;20045;-74
2022/09/15 03:52:59;;;;;;;1.77;1.38;;;;;;;13.05;74.13;99930.19;4983739;28;20025;-74
2022/09/15 03:55:24;;;;;;;1.42;0.85;;;;;;;13.03;74.05;99924.19;4993918;28;20213;-72
2022/09/15 03:57:50;;;;;;;2.95;0.70;;;;;;;13.03;74.31;99926.94;4976909;28;20082;-72
2022/09/15 04:00:15;;;;;;;1.35;0.70;;;;;;;12.91;74.20;99910.91;4997025;28;20395;-71
2022/09/15 04:02:40;;;;;;;3.42;0.52;;;;;;;12.97;74.53;99917.16;4995556;28;20088;-72
2022/09/15 04:05:06;;;;;;;4.80;0.70;;;;;;;12.91;74.60;99922.69;4970378;28;20032;-72
2022/09/15 04:07:32;;;;;;;10.63;0.93;;;;;;;12.91;74.67;99921.88;4990477;28;20015;-72
2022/09/15 04:09:57;;;;;;;1.70;0.88;;;;;;;12.93;74.51;99919.66;4964555;28;20480;-72
2022/09/15 04:12:23;;;;;;;3.38;0.88;;;;;;;12.93;74.34;99923.19;4998087;28;20544;-72
2022/09/15 04:14:48;;;;;;;3.08;0.93;;;;;;;12.92;74.81;99918.84;4985593;28;20030;-73
2022/09/15 04:17:14;;;;;;;1.13;0.80;;;;;;;12.96;74.89;99927.28;4964681;28;20031;-74
2022/09/15 04:19:40;;;;;;;1.65;1.00;;;;;;;12.96;74.86;99924.56;4964447;28;20034;-73
2022/09/15 04:22:06;;;;;;;1.85;0.80;;;;;;;12.97;74.60;99925.38;4983875;23;20177;-71
2022/09/15 04:24:31;;;;;;;1.48;0.80;;;;;;;12.96;75.02;99923.75;4966254;28;20042;-72
2022/09/15 04:26:56;;;;;;;2.17;1.05;;;;;;;13.02;75.18;99934.34;4994204;28;20117;-72
2022/09/15 04:29:22;;;;;;;2.42;1.20;;;;;;;13.14;74.89;99936.69;5010173;28;20421;-71
2022/09/15 04:31:47;;;;;;;2.75;0.70;;;;;;;13.15;75.03;99934.75;4994829;28;20022;-72
2022/09/15 04:34:13;;;;;;;1.55;0.70;;;;;;;13.10;74.55;99930.94;5011353;28;20026;-72
2022/09/15 04:36:38;;;;;;;1.02;0.80;;;;;;;13.09;74.64;99934.81;5009951;28;20430;-73
2022/09/15 04:39:05;;;;;;;2.20;0.82;;;;;;;13.16;74.58;99942.69;5004840;28;20054;-75
2022/09/15 04:41:32;;;;;;;1.40;0.80;;;;;;;13.10;74.67;99936.44;4988106;28;20688;-73
2022/09/15 04:43:58;;;;;;;1.08;0.80;;;;;;;13.02;75.00;99948.06;4967837;28;20423;-72
2022/09/15 04:46:23;;;;;;;3.95;0.73;;;;;;;12.88;75.17;99945.22;5011451;28;20034;-72
2022/09/15 04:48:49;;;;;;;3.40;0.77;;;;;;;12.74;75.54;99955.28;4994205;28;20022;-74
2022/09/15 04:51:21;;;;;;;3.38;0.70;;;;;;;12.65;75.70;99946.88;4986062;28;20367;-72
2022/09/15 04:53:47;;;;;;;1.10;0.77;;;;;;;12.56;76.32;99951.38;5014026;28;20025;-73
2022/09/15 04:56:16;;;;;;;1.85;1.10;;;;;;;12.44;77.09;99945.44;5007138;28;20105;-73
2022/09/15 04:58:46;;;;;;;1.15;0.70;;;;;;;12.39;76.82;99947.13;5004103;28;20046;-73
2022/09/15 05:01:24;;;;;;;4.38;0.90;;;;;;;12.31;77.87;99952.44;5010612;28;20025;-73
2022/09/15 05:03:50;;;;;;;2.45;0.90;;;;;;;12.26;77.18;99947.81;5004341;28;20105;-73
2022/09/15 05:06:19;;;;;;;1.75;0.93;;;;;;;12.31;77.46;99952.44;5004231;28;20061;-73
2022/09/15 05:08:50;;;;;;;1.50;0.80;;;;;;;12.30;78.18;99943.41;5002873;28;20072;-72
2022/09/15 05:11:17;;;;;;;1.45;0.80;;;;;;;12.42;77.54;99958.66;5003764;28;20065;-72
2022/09/15 05:13:43;;;;;;;1.55;0.85;;;;;;;12.50;78.07;99958.00;5000961;28;20049;-70
2022/09/15 05:16:17;;;;;;;0.82;0.60;;;;;;;12.58;77.30;99958.19;5011425;28;20042;-71
2022/09/15 05:18:44;;;;;;;2.58;0.90;;;;;;;12.69;77.48;99958.09;5004113;28;20097;-70
2022/09/15 05:21:12;;;;;;;2.20;0.80;;;;;;;12.77;76.98;99959.38;5013417;28;20068;-70
2022/09/15 05:23:50;;;;;;;2.67;0.90;;;;;;;12.82;76.81;99953.81;5004055;28;20053;-70
2022/09/15 05:26:22;;;;;;;1.77;0.73;;;;;;;12.85;77.20;99955.97;4991720;28;20030;-70
2022/09/15 05:28:47;;;;;;;1.60;0.88;;;;;;;12.86;77.30;99954.88;5018036;28;20374;-70
2022/09/15 05:31:16;;;;;;;2.53;0.85;;;;;;;12.88;76.86;99955.41;5014860;28;20018;-72
2022/09/15 05:33:42;;;;;;;5.38;0.70;;;;;;;12.89;76.44;99959.75;5007654;28;20037;-70
2022/09/15 05:36:08;;;;;;;2.97;0.88;;;;;;;12.88;76.46;99966.38;5011521;28;20026;-71
2022/09/15 05:38:34;;;;;;;2.80;1.10;;;;;;;12.92;76.85;99967.41;5003981;28;20417;-70
2022/09/15 05:41:09;;;;;;;2.08;0.65;;;;;;;12.93;76.90;99969.06;5011618;28;20042;-71
2022/09/15 05:43:36;;;;;;;4.60;0.98;;;;;;;12.92;76.46;99978.38;5015716;28;20099;-70
2022/09/15 05:46:02;;;;;;;2.65;1.00;;;;;;;12.95;76.75;99972.31;5014715;28;20030;-71
2022/09/15 05:48:28;;;;;;;2.45;1.10;;;;;;;12.93;76.57;99969.06;4998452;28;20030;-71
2022/09/15 05:50:55;;;;;;;1.38;0.82;;;;;;;12.98;76.37;99982.72;5010085;28;20337;-72
2022/09/15 05:53:21;;;;;;;3.42;0.90;;;;;;;13.01;75.94;99981.28;5011224;28;20042;-72
2022/09/15 05:55:46;;;;;;;1.48;0.63;;;;;;;13.00;76.40;99975.00;5011033;28;20125;-70
2022/09/15 05:58:16;;;;;;;0.93;0.73;;;;;;;13.11;76.03;99978.44;4996474;28;20048;-75
2022/09/15 06:00:42;;;;;;;1.77;0.90;;;;;;;13.15;75.34;99989.66;4979968;28;20050;-68
2022/09/15 06:03:13;;;;;;;4.43;0.82;;;;;;;13.17;75.48;99995.66;5010086;28;20054;-73
2022/09/15 06:05:39;;;;;;;2.33;0.90;;;;;;;13.18;75.29;99998.09;5013085;28;20041;-74
2022/09/15 06:08:04;;;;;;;4.18;0.70;;;;;;;13.27;75.01;100001.00;4995135;28;20476;-73
2022/09/15 06:10:31;;;;;;;3.03;1.10;;;;;;;13.31;75.46;100002.06;5013341;28;20478;-73
2022/09/15 06:12:57;;;;;;;3.13;0.65;;;;;;;13.31;74.71;100004.81;5015598;28;20412;-70
2022/09/15 06:15:23;;;;;;;2.17;0.82;;;;;;;13.31;75.06;100006.75;5009935;28;20030;-72
2022/09/15 06:17:49;;;;;;;3.90;0.95;;;;;;;13.30;75.23;100005.91;5014698;28;20026;-69
2022/09/15 06:20:15;;;;;;;1.33;0.70;;;;;;;13.38;74.53;100024.53;4999365;28;20030;-69
2022/09/15 06:22:40;;;;;;;2.28;1.00;;;;;;;13.42;74.77;100017.34;5013033;28;20081;-69
2022/09/15 06:25:06;;;;;;;5.25;0.95;;;;;;;13.44;74.72;100017.03;5010005;28;20034;-70
2022/09/15 06:27:32;;;;;;;2.88;0.80;;;;;;;13.48;74.41;100025.50;5007331;28;20131;-69
2022/09/15 06:29:58;;;;;;;2.83;0.63;;;;;;;13.54;74.65;100024.34;5012758;28;20022;-73
2022/09/15 06:32:23;;;;;;;2.40;1.10;;;;;;;13.60;74.21;100023.13;4986150;28;20019;-71
2022/09/15 06:34:49;;;;;;;1.13;0.50;;;;;;;13.67;73.90;100025.50;4987011;28;20125;-70
2022/09/15 06:37:15;;;;;;;3.40;0.82;;;;;;;13.75;73.89;100027.59;5015831;28;20364;-69
2022/09/15 06:39:42;;;;;;;2.08;0.98;;;;;;;13.77;73.27;100026.19;5008037;28;20029;-69
2022/09/15 06:42:08;;;;;;;3.83;0.90;;;;;;;13.81;73.54;100031.09;5002965;28;20029;-69
2022/09/15 06:44:34;;;;;;;4.05;1.00;;;;;;;13.86;72.85;100034.59;5010635;28;20022;-69
2022/09/15 06:46:59;;;;;;;3.15;0.95;;;;;;;13.87;73.00;100030.72;4994198;28;20037;-69
2022/09/15 06:49:25;;;;;;;1.73;0.93;;;;;;;13.91;72.52;100036.44;5003085;28;20044;-69
2022/09/15 06:51:50;;;;;;;3.00;0.77;;;;;;;13.95;72.81;100043.78;5006170;28;20092;-68
2022/09/15 06:54:16;;;;;;;5.00;0.95;;;;;;;14.01;72.57;100046.47;5001045;28;20076;-69
2022/09/15 06:56:42;;;;;;;2.97;0.90;;;;;;;14.01;71.75;100036.28;5006483;28;20041;-70
2022/09/15 06:59:11;;;;;;;1.17;0.75;;;;;;;14.06;72.03;100043.63;5010630;28;20030;-68
2022/09/15 07:01:36;;;;;;;4.63;1.15;;;;;;;14.11;72.19;100044.38;5006938;28;20026;-70
2022/09/15 07:04:05;;;;;;;2.20;0.77;;;;;;;14.17;72.24;100058.06;5008962;28;20105;-72
2022/09/15 07:06:32;;;;;;;3.45;0.90;;;;;;;14.22;71.63;100064.28;5004380;28;20031;-73
2022/09/15 07:08:58;;;;;;;9.40;1.15;;;;;;;14.26;71.72;100064.50;5000043;28;20038;-71
2022/09/15 07:11:24;;;;;;;6.25;0.80;;;;;;;14.27;71.80;100057.88;4984888;28;20057;-73
2022/09/15 07:13:50;;;;;;;2.63;0.88;;;;;;;14.36;71.32;100069.03;5002136;28;20030;-73
2022/09/15 07:16:17;;;;;;;4.20;0.70;;;;;;;14.39;71.29;100073.91;4990437;28;20496;-72
2022/09/15 07:18:46;;;;;;;5.18;1.08;;;;;;;14.45;71.33;100067.22;5011197;28;20380;-72
2022/09/15 07:21:14;;;;;;;5.85;1.38;;;;;;;14.54;71.00;100070.09;5010493;28;20034;-72
2022/09/15 07:23:40;;;;;;;5.18;1.25;;;;;;;14.62;70.72;100067.50;5009418;28;20053;-72
2022/09/15 07:26:14;;;;;;;1.50;0.88;;;;;;;14.71;70.26;100075.88;4994324;28;20080;-71
2022/09/15 07:28:44;;;;;;;6.45;0.90;;;;;;;14.81;69.84;100080.38;5003925;28;20087;-72
2022/09/15 07:31:13;;;;;;;4.70;1.13;;;;;;;14.90;69.26;100073.06;5004124;28;20022;-72
2022/09/15 07:33:38;;;;;;;4.13;1.00;;;;;;;15.00;69.29;100080.31;5004831;28;20029;-72
2022/09/15 07:36:06;;;;;;;5.28;1.73;;;;;;;15.06;68.75;100076.34;5003044;28;20026;-73
2022/09/15 07:38:32;;;;;;;3.90;0.70;;;;;;;15.04;68.29;100077.75;4992197;28;20026;-72
2022/09/15 07:41:06;;;;;;;6.25;1.17;;;;;;;15.13;68.26;100082.25;5003132;28;20054;-74
2022/09/15 07:43:32;;;;;;;4.40;0.65;;;;;;;15.27;67.40;100078.69;5002947;28;20088;-73
2022/09/15 07:45:59;;;;;;;5.22;0.70;;;;;;;15.34;66.79;100079.09;5007748;28;20480;-72
2022/09/15 07:48:25;;;;;;;2.95;1.00;;;;;;;15.48;66.11;100079.91;5010111;28;20094;-72
2022/09/15 07:50:50;;;;;;;6.68;0.80;;;;;;;15.61;66.31;100080.19;4995046;28;20117;-72
2022/09/15 07:53:17;;;;;;;0.57;0.45;;;;;;;15.80;65.54;100094.72;4979103;28;20145;-73
2022/09/15 07:55:43;;;;;;;3.90;0.88;;;;;;;15.93;65.14;100094.97;5002171;28;20022;-71
2022/09/15 07:58:08;;;;;;;4.75;0.60;;;;;;;16.03;64.23;100086.47;5008064;28;20033;-73
2022/09/15 08:00:36;;;;;;;1.08;0.50;;;;;;;16.19;63.53;100090.53;5004302;28;20038;-72
2022/09/15 08:03:02;;;;;;;1.42;0.43;;;;;;;16.31;62.73;100091.88;5008796;28;20025;-71
2022/09/15 08:05:27;;;;;;;2.08;0.77;;;;;;;16.48;61.93;100089.25;5011068;28;20089;-72
2022/09/15 08:07:54;;;;;;;6.43;0.80;;;;;;;16.71;60.04;100092.03;5012796;28;20555;-71
2022/09/15 08:10:21;;;;;;;1.67;0.40;;;;;;;16.84;59.74;100093.88;5011034;28;20094;-71
2022/09/15 08:12:46;;;;;;;1.92;0.80;;;;;;;16.85;59.42;100092.75;5013978;28;20435;-74
2022/09/15 08:15:12;;;;;;;1.77;0.60;;;;;;;16.99;59.19;100094.66;4988879;28;20176;-72
2022/09/15 08:17:37;;;;;;;5.35;0.82;;;;;;;17.06;58.49;100101.34;4993255;28;20045;-73
2022/09/15 08:20:03;;;;;;;3.25;0.70;;;;;;;17.30;58.71;100099.31;5012792;28;20065;-72
2022/09/15 08:22:29;;;;;;;1.58;0.45;;;;;;;17.59;58.85;100107.88;4975956;28;20054;-72
2022/09/15 08:24:54;;;;;;;2.38;0.70;;;;;;;17.86;57.64;100108.75;4980944;28;20053;-73
2022/09/15 08:27:20;;;;;;;4.28;0.88;;;;;;;17.90;55.90;100112.53;5002527;28;20052;-72
2022/09/15 08:29:45;;;;;;;7.25;0.90;;;;;;;18.13;55.76;100115.16;5011306;28;20031;-71
2022/09/15 08:32:11;;;;;;;2.80;0.63;;;;;;;18.25;55.96;100106.22;4977382;28;20019;-72
2022/09/15 08:34:36;;;;;;;2.83;0.80;;;;;;;18.44;55.22;100116.94;4993569;28;20069;-72
2022/09/15 08:37:02;;;;;;;3.83;0.93;;;;;;;18.45;54.42;100113.03;5013919;28;20030;-72
2022/09/15 08:39:27;;;;;;;2.30;0.80;;;;;;;18.45;54.51;100121.34;4977596;28;20041;-73
2022/09/15 08:41:54;;;;;;;6.20;1.33;;;;;;;18.53;54.49;100134.38;4992085;28;20033;-71
2022/09/15 08:44:29;;;;;;;4.93;1.05;;;;;;;18.52;53.34;100140.25;5011321;28;20026;-72
2022/09/15 08:47:19;;;;;;;4.68;1.42;;;;;;;18.53;53.50;100145.47;5008354;28;20026;-72
2022/09/15 08:49:56;;;;;;;2.58;1.00;;;;;;;18.67;54.10;100151.63;4998444;28;20041;-73
2022/09/15 08:52:41;;;;;;;6.95;1.17;;;;;;;18.68;52.96;100152.44;4998756;28;20038;-72
2022/09/15 08:55:32;;;;;;;2.22;0.70;;;;;;;18.77;52.06;100152.44;5009005;28;20475;-72
2022/09/15 08:57:57;;;;;;;3.13;1.02;;;;;;;19.02;52.32;100146.03;4997255;28;20037;-73
2022/09/15 09:00:25;;;;;;;7.45;0.70;;;;;;;19.37;50.09;100145.13;5005370;28;20022;-72
2022/09/15 09:03:06;;;;;;;1.58;0.57;;;;;;;19.81;49.43;100158.81;5007277;28;20032;-73
2022/09/15 09:05:49;;;;;;;2.83;0.77;;;;;;;20.28;47.95;100150.38;5011888;28;20053;-72
2022/09/15 09:08:33;;;;;;;7.97;1.60;;;;;;;20.72;47.08;100147.22;5008640;28;20109;-72
2022/09/15 09:11:19;;;;;;;3.25;1.23;;;;;;;21.26;45.62;100149.09;5003746;28;20034;-73
2022/09/15 09:14:11;;;;;;;3.72;0.70;;;;;;;22.43;43.26;100153.25;5000376;28;20037;-72
2022/09/15 09:17:00;;;;;;;6.00;0.80;;;;;;;22.89;40.45;100164.09;4991977;28;20056;-73
2022/09/15 09:19:51;;;;;;;2.22;0.68;;;;;;;22.71;41.50;100155.25;4997437;28;20030;-72
2022/09/15 09:22:26;;;;;;;1.85;0.52;;;;;;;24.53;39.79;100165.72;4994608;28;20050;-72
2022/09/15 09:24:55;;;;;;;0.93;0.50;;;;;;;25.33;36.49;100159.69;5010723;28;20018;-71
2022/09/15 09:27:26;;;;;;;3.30;0.70;;;;;;;24.87;35.42;100159.63;5002259;28;20018;-73
2022/09/15 09:30:00;;;;;;;3.10;0.82;;;;;;;25.14;36.35;100160.50;5014200;28;20034;-73
2022/09/15 09:32:36;;;;;;;3.90;1.10;;;;;;;25.98;34.23;100159.91;5002858;28;20644;-73
2022/09/15 09:35:05;;;;;;;1.30;0.60;;;;;;;27.53;32.70;100168.22;5003452;28;20142;-72
2022/09/15 09:37:32;;;;;;;4.75;0.80;;;;;;;29.36;27.49;100176.75;5006851;28;20038;-71
2022/09/15 09:39:57;;;;;;;1.48;0.50;;;;;;;30.73;26.70;100170.91;4998166;28;20022;-72
2022/09/15 09:42:29;;;;;;;5.78;0.73;;;;;;;30.94;25.93;100174.81;5009589;28;20026;-73
2022/09/15 09:44:55;;;;;;;1.85;0.50;;;;;;;30.70;25.92;100173.75;5004231;28;20072;-72
2022/09/15 09:47:26;;;;;;;1.65;0.70;;;;;;;30.94;25.48;100177.66;5003258;28;20017;-71
2022/09/15 09:49:51;;;;;;;5.50;1.08;;;;;;;31.11;25.26;100179.59;5015900;28;20025;-71
2022/09/15 09:52:35;;;;;;;3.00;0.88;;;;;;;29.52;25.04;100175.56;4991982;28;20484;-74
2022/09/15 09:55:15;;;;;;;4.53;0.95;;;;;;;28.00;26.93;100179.81;5011091;28;20022;-73
2022/09/15 09:57:40;;;;;;;5.20;0.90;;;;;;;26.84;28.98;100183.53;5007088;28;20034;-72
2022/09/15 10:00:28;;;;;;;1.90;0.63;;;;;;;25.84;30.16;100180.13;5009136;28;20125;-73
2022/09/15 10:02:54;;;;;;;1.02;0.50;;;;;;;25.40;31.28;100173.81;5012196;28;20030;-72
2022/09/15 10:05:20;;;;;;;2.55;0.63;;;;;;;25.17;31.27;100187.75;5001222;28;20034;-73
2022/09/15 10:07:46;;;;;;;3.40;0.70;;;;;;;25.56;31.67;100187.66;4985943;28;20050;-73
2022/09/15 10:10:23;;;;;;;1.60;0.60;;;;;;;26.30;30.84;100189.25;5014550;28;20030;-73
2022/09/15 10:12:49;;;;;;;4.55;0.95;;;;;;;26.90;29.82;100181.22;4997795;28;20038;-73
2022/09/15 10:15:30;;;;;;;6.53;0.93;;;;;;;27.41;28.25;100182.53;5003394;28;20452;-73
2022/09/15 10:17:56;;;;;;;2.28;0.85;;;;;;;28.35;27.60;100184.84;5000733;28;20026;-72
2022/09/15 10:20:32;;;;;;;6.80;0.70;;;;;;;30.88;24.96;100179.31;5009335;28;20032;-72
2022/09/15 10:23:23;;;;;;;7.10;1.00;;;;;;;30.58;23.18;100181.47;5004695;28;20119;-72
2022/09/15 10:25:50;;;;;;;3.42;0.70;;;;;;;29.08;24.50;100185.94;5007936;28;20038;-72
2022/09/15 10:28:24;;;;;;;3.25;0.95;;;;;;;30.06;24.22;100176.34;5007108;28;20109;-72
2022/09/15 10:31:09;;;;;;;5.78;0.80;;;;;;;30.08;23.19;100196.50;4999903;28;20031;-73
2022/09/15 10:33:43;;;;;;;3.75;1.02;;;;;;;28.27;25.16;100194.44;5005772;28;20085;-72
2022/09/15 10:36:22;;;;;;;5.50;0.85;;;;;;;26.35;27.15;100185.28;5008446;28;20052;-72
2022/09/15 10:38:56;;;;;;;3.22;0.77;;;;;;;24.80;29.58;100181.84;5008991;28;20038;-72
2022/09/15 10:41:31;;;;;;;3.72;1.50;;;;;;;23.78;31.04;100178.75;4990290;28;20138;-73
2022/09/15 10:44:17;;;;;;;3.38;0.80;;;;;;;23.53;32.08;100178.94;5015594;28;20029;-72
2022/09/15 10:47:16;;;;;;;2.75;0.80;;;;;;;23.62;32.27;100175.19;5014113;28;20033;-72
2022/09/15 10:50:04;;;;;;;4.10;0.80;;;;;;;25.73;30.27;100174.34;4995891;28;20706;-73
2022/09/15 10:52:58;;;;;;;1.67;0.82;;;;;;;29.97;26.46;100173.16;5010215;28;20033;-72
2022/09/15 10:55:54;;;;;;;3.03;0.77;;;;;;;33.42;21.12;100179.16;5004436;28;20033;-73
2022/09/15 10:58:23;;;;;;;3.45;0.57;;;;;;;33.13;20.04;100190.91;5010656;28;20072;-73
2022/09/15 11:01:31;;;;;;;0.90;0.40;;;;;;;31.21;22.06;100180.75;5030188;28;20094;-72
2022/09/15 11:03:56;;;;;;;2.80;0.68;;;;;;;30.02;22.07;100175.56;5005046;28;20112;-73
2022/09/15 11:06:46;;;;;;;1.38;0.60;;;;;;;29.97;22.18;100184.44;5004772;28;20757;-73
2022/09/15 11:09:28;;;;;;;1.35;0.60;;;;;;;29.96;22.53;100182.81;5002815;28;20026;-72
2022/09/15 11:12:09;;;;;;;2.30;0.47;;;;;;;30.18;22.91;100171.50;5007260;28;20034;-73
2022/09/15 11:14:53;;;;;;;4.25;0.75;;;;;;;30.30;21.74;100176.72;5010316;28;20041;-73
2022/09/15 11:17:24;;;;;;;2.65;0.77;;;;;;;29.12;22.94;100202.84;5009552;28;20025;-72
2022/09/15 11:20:02;;;;;;;3.15;0.80;;;;;;;27.91;24.36;100182.94;5006289;28;20034;-72
2022/09/15 11:23:20;;;;;;;;;;;;;;;;;;;;;
2022/09/15 11:29:32;;;;;;;3.08;1.10;;;;;;;35.75;17.99;100172.75;4970941;28;20039;-72
2022/09/15 11:32:14;;;;;;;2.97;0.60;;;;;;;37.33;16.66;100179.59;4971588;28;20055;-72
2022/09/15 11:34:53;;;;;;;2.63;0.85;;;;;;;35.72;16.49;100179.31;5010201;28;20077;-74
2022/09/15 11:37:47;;;;;;;7.07;1.20;;;;;;;34.41;18.09;100186.34;5012814;28;20028;-73
2022/09/15 11:40:20;;;;;;;2.97;0.65;;;;;;;32.14;20.06;100190.50;5005219;28;20054;-73
2022/09/15 11:43:02;;;;;;;5.82;1.23;;;;;;;29.85;21.57;100198.94;5005614;28;20030;-72
2022/09/15 11:45:33;;;;;;;3.00;0.77;;;;;;;28.44;23.51;100194.94;5001006;28;20766;-73
2022/09/15 11:48:06;;;;;;;1.40;0.60;;;;;;;27.69;24.06;100188.41;4983915;28;20042;-72
2022/09/15 11:50:36;;;;;;;5.97;0.80;;;;;;;27.42;24.35;100201.78;5004769;28;20044;-72
2022/09/15 11:53:26;;;;;;;3.60;1.00;;;;;;;27.05;24.84;100204.59;5010639;28;20053;-73
2022/09/15 11:56:09;;;;;;;4.03;0.98;;;;;;;31.97;21.27;100203.56;4985654;28;20026;-72